Terminal Aerodrome Forecast
Issued by NWS

Home | Current Version | Previous Version | Text Only | Print | Product List | Glossary On
Versions: 1 2 3 4 5 6 7 8 9 10 11 12 13 14 15
000
FTUS41 KGYX 010524
TAFRKD
TAF
KRKD 010524Z 0106/0206 30004KT P6SM SKC
     FM011500 20006KT P6SM SCT100 BKN200
     FM011800 21010KT P6SM SCT060 OVC100
     FM012300 23010KT 5SM -SN BKN025 OVC050
     FM020400 24008KT 2SM -SN BR BKN015 OVC025
      AMD LTD TO CLD VIS AND WIND=

USA.gov is the U.S. government's official web portal to all federal, state and local government web resources and services.